createdAt,value
2018-07-06T00:02:33.898Z,3.77
2018-07-06T00:05:13.950Z,3.40
2018-07-06T00:07:53.720Z,3.63
2018-07-06T00:10:33.573Z,3.33
2018-07-06T00:13:13.375Z,3.57
2018-07-06T00:15:53.239Z,3.33
2018-07-06T00:18:33.215Z,3.60
2018-07-06T00:21:13.133Z,3.53
2018-07-06T00:23:52.881Z,4.00
2018-07-06T00:26:32.683Z,3.50
2018-07-06T00:29:12.624Z,3.53
2018-07-06T00:31:52.652Z,3.37
2018-07-06T00:34:32.591Z,3.57
2018-07-06T00:37:12.450Z,3.67
2018-07-06T00:39:52.246Z,3.77
2018-07-06T00:42:32.139Z,3.60
2018-07-06T00:45:11.984Z,3.97
2018-07-06T00:47:51.837Z,4.00
2018-07-06T00:50:31.742Z,4.00
2018-07-06T00:53:11.477Z,3.80
2018-07-06T00:55:51.272Z,3.63
2018-07-06T00:58:31.376Z,3.73
2018-07-06T01:01:11.120Z,3.57
2018-07-06T01:03:50.995Z,3.83
2018-07-06T01:06:30.640Z,4.40
2018-07-06T01:09:11.617Z,3.90
2018-07-06T01:11:51.596Z,3.57
2018-07-06T01:14:31.477Z,3.80
2018-07-06T01:17:16.431Z,3.50
2018-07-06T01:19:57.067Z,3.93
2018-07-06T01:22:36.907Z,4.00
2018-07-06T01:25:16.626Z,3.97
2018-07-06T01:27:56.490Z,3.67
2018-07-06T01:30:36.440Z,3.50
2018-07-06T01:33:16.292Z,4.00
2018-07-06T01:35:55.990Z,4.50
2018-07-06T01:38:35.579Z,3.30
2018-07-06T01:41:15.258Z,3.47
2018-07-06T01:43:55.052Z,3.40
2018-07-06T01:46:34.790Z,3.43
2018-07-06T01:49:14.640Z,3.30
2018-07-06T01:51:54.335Z,3.07
2018-07-06T01:54:34.179Z,3.27
2018-07-06T01:57:13.970Z,3.60
2018-07-06T01:59:53.641Z,3.40
2018-07-06T02:02:33.537Z,2.87
2018-07-06T02:05:13.438Z,3.13
2018-07-06T02:07:53.329Z,3.30
2018-07-06T02:10:34.016Z,2.90
2018-07-06T02:13:13.936Z,2.93
2018-07-06T02:15:53.844Z,3.60
2018-07-06T02:18:33.739Z,3.17
2018-07-06T02:21:13.646Z,2.73
2018-07-06T02:23:53.475Z,3.60
2018-07-06T02:26:33.077Z,3.10
2018-07-06T02:29:12.884Z,3.57
2018-07-06T02:31:52.771Z,3.40
2018-07-06T02:34:32.715Z,3.30
2018-07-06T02:37:12.617Z,3.80
2018-07-06T02:39:52.341Z,3.50
2018-07-06T02:42:32.024Z,3.83
2018-07-06T02:45:12.028Z,3.33
2018-07-06T02:47:52.054Z,4.03
2018-07-06T02:50:31.887Z,4.00
2018-07-06T02:53:11.738Z,3.70
2018-07-06T02:55:51.588Z,3.60
2018-07-06T02:58:31.426Z,3.77
2018-07-06T03:01:11.280Z,5.17
2018-07-06T03:03:51.043Z,3.70
2018-07-06T03:06:30.952Z,3.83
2018-07-06T03:09:10.736Z,4.00
2018-07-06T03:11:50.602Z,3.57
2018-07-06T03:14:30.544Z,3.27
2018-07-06T03:17:10.276Z,3.20
2018-07-06T03:19:50.179Z,3.57
2018-07-06T03:22:30.090Z,3.90
2018-07-06T03:25:09.931Z,3.43
2018-07-06T03:27:49.893Z,3.60
2018-07-06T03:30:29.696Z,3.37
2018-07-06T03:33:09.444Z,3.10
2018-07-06T03:35:43.279Z,3.30
2018-07-06T03:38:23.116Z,3.90
2018-07-06T03:41:02.991Z,3.50
2018-07-06T03:43:42.703Z,3.47
2018-07-06T03:46:22.385Z,3.90
2018-07-06T03:49:02.160Z,3.87
2018-07-06T03:51:41.948Z,3.80
2018-07-06T03:54:21.769Z,3.97
2018-07-06T03:57:01.591Z,3.27
2018-07-06T03:59:41.487Z,3.63
2018-07-06T04:02:21.324Z,3.83
2018-07-06T04:05:01.182Z,3.53
2018-07-06T04:07:40.842Z,3.47
2018-07-06T04:10:20.667Z,3.30
2018-07-06T04:13:00.556Z,3.00
2018-07-06T04:15:40.514Z,3.60
2018-07-06T04:18:14.144Z,3.20
2018-07-06T04:20:54.007Z,3.10
2018-07-06T04:23:33.787Z,3.50
2018-07-06T04:26:13.664Z,3.13
2018-07-06T04:28:53.536Z,3.60
2018-07-06T04:31:33.394Z,3.23
2018-07-06T04:34:13.144Z,3.47
2018-07-06T04:36:52.771Z,3.53
2018-07-06T04:39:32.456Z,3.97
2018-07-06T04:42:12.284Z,3.40
2018-07-06T04:44:52.070Z,3.57
2018-07-06T04:47:31.777Z,3.43
2018-07-06T04:50:11.408Z,3.43
2018-07-06T04:52:51.078Z,3.40
2018-07-06T04:55:30.926Z,3.20
2018-07-06T04:58:10.710Z,3.50
2018-07-06T05:00:50.562Z,3.47
2018-07-06T05:03:30.449Z,3.93
2018-07-06T05:06:10.276Z,3.97
2018-07-06T05:08:50.071Z,3.53
2018-07-06T05:11:29.964Z,3.73
2018-07-06T05:14:09.601Z,3.40
2018-07-06T05:16:49.394Z,3.23
2018-07-06T05:19:29.125Z,3.60
2018-07-06T05:22:08.867Z,3.40
2018-07-06T05:24:48.785Z,3.33
2018-07-06T05:27:28.337Z,3.20
2018-07-06T05:30:08.064Z,3.30
2018-07-06T05:32:47.946Z,4.07
2018-07-06T05:35:27.622Z,3.70
2018-07-06T05:38:07.477Z,3.77
2018-07-06T05:40:47.307Z,3.53
2018-07-06T05:43:27.103Z,3.93
2018-07-06T05:46:06.692Z,3.13
2018-07-06T05:48:46.435Z,3.47
2018-07-06T05:51:26.462Z,3.90
2018-07-06T05:54:06.340Z,3.80
2018-07-06T05:56:46.152Z,4.13
2018-07-06T05:59:25.900Z,4.20
2018-07-06T06:02:05.797Z,3.20
2018-07-06T06:04:45.746Z,3.47
2018-07-06T06:07:23.835Z,3.53
2018-07-06T06:09:52.373Z,4.10
2018-07-06T06:12:21.159Z,3.93
2018-07-06T06:14:50.364Z,4.03
2018-07-06T06:17:18.974Z,3.23
2018-07-06T06:19:47.519Z,3.63
2018-07-06T06:22:16.066Z,4.00
2018-07-06T06:24:44.606Z,4.30
2018-07-06T06:27:13.231Z,4.40
2018-07-06T06:29:41.853Z,4.53
2018-07-06T06:32:10.616Z,4.97
2018-07-06T06:34:39.256Z,4.33
2018-07-06T06:37:07.804Z,3.90
2018-07-06T06:39:36.351Z,4.37
2018-07-06T06:42:04.902Z,4.17
2018-07-06T06:44:33.577Z,4.60
2018-07-06T06:47:02.559Z,4.67
2018-07-06T06:49:31.869Z,4.40
2018-07-06T06:52:00.530Z,4.67
2018-07-06T06:54:29.320Z,4.67
2018-07-06T06:56:57.877Z,5.03
2018-07-06T06:59:26.432Z,5.03
2018-07-06T07:01:55.010Z,5.07
2018-07-06T07:04:23.738Z,5.00
2018-07-06T07:06:52.876Z,4.97
2018-07-06T07:09:21.610Z,5.33
2018-07-06T07:11:50.170Z,5.60
2018-07-06T07:14:18.714Z,5.60
2018-07-06T07:16:47.734Z,6.50
2018-07-06T07:19:16.248Z,5.47
2018-07-06T07:21:44.879Z,6.57
2018-07-06T07:24:13.623Z,5.93
2018-07-06T07:26:42.221Z,5.60
2018-07-06T07:29:10.921Z,6.10
2018-07-06T07:31:39.543Z,5.33
2018-07-06T07:34:08.151Z,5.63
2018-07-06T07:36:39.081Z,6.03
2018-07-06T07:39:07.926Z,5.43
2018-07-06T07:41:37.377Z,5.70
2018-07-06T07:44:06.119Z,6.50
2018-07-06T07:46:35.423Z,6.07
2018-07-06T07:49:04.217Z,5.97
2018-07-06T07:51:57.385Z,6.23
2018-07-06T07:54:33.689Z,5.97
2018-07-06T07:57:02.933Z,5.43
2018-07-06T07:59:33.167Z,6.20
2018-07-06T08:02:04.882Z,6.33
2018-07-06T08:04:33.493Z,5.93
2018-07-06T08:07:02.846Z,6.83
2018-07-06T08:09:31.392Z,6.70
2018-07-06T08:12:01.256Z,6.70
2018-07-06T08:14:29.854Z,6.13
2018-07-06T08:16:58.502Z,6.30
2018-07-06T08:19:27.027Z,6.53
2018-07-06T08:21:55.888Z,6.73
2018-07-06T08:24:24.379Z,6.80
2018-07-06T08:26:53.012Z,6.60
2018-07-06T08:29:21.491Z,7.20
2018-07-06T08:31:50.049Z,6.70
2018-07-06T08:34:30.014Z,6.43
2018-07-06T08:37:37.870Z,6.23
2018-07-06T08:40:06.675Z,5.57
2018-07-06T08:42:36.436Z,5.73
2018-07-06T08:45:06.470Z,5.50
2018-07-06T08:47:35.076Z,6.10
2018-07-06T08:50:04.247Z,5.03
2018-07-06T08:52:32.806Z,5.00
2018-07-06T08:55:01.364Z,5.23
2018-07-06T08:57:30.915Z,4.97
2018-07-06T08:59:59.728Z,4.70
2018-07-06T09:02:28.323Z,4.80
2018-07-06T09:04:57.687Z,4.73
2018-07-06T09:07:26.325Z,4.53
2018-07-06T09:09:55.838Z,4.23
2018-07-06T09:12:24.521Z,4.50
2018-07-06T09:14:53.026Z,4.03
2018-07-06T09:17:21.995Z,4.13
2018-07-06T09:19:51.019Z,3.47
2018-07-06T09:22:19.537Z,3.50
2018-07-06T09:24:49.213Z,3.90
2018-07-06T09:27:17.718Z,3.40
2018-07-06T09:29:46.308Z,3.33
2018-07-06T09:32:14.821Z,3.87
2018-07-06T09:34:43.581Z,3.00
2018-07-06T09:37:12.114Z,2.87
2018-07-06T09:39:41.644Z,3.50
2018-07-06T09:42:14.136Z,3.00
2018-07-06T09:44:42.971Z,3.23
2018-07-06T09:47:11.494Z,3.13
2018-07-06T09:49:40.058Z,2.70
2018-07-06T09:52:08.754Z,3.27
2018-07-06T09:54:37.496Z,2.67
2018-07-06T09:57:06.972Z,2.70
2018-07-06T09:59:35.556Z,2.63
2018-07-06T10:02:04.182Z,3.00
2018-07-06T10:04:32.927Z,2.87
2018-07-06T10:07:01.508Z,2.93
2018-07-06T10:09:30.022Z,3.47
2018-07-06T10:11:58.624Z,2.50
2018-07-06T10:14:27.164Z,2.80
2018-07-06T10:16:55.712Z,3.43
2018-07-06T10:19:24.324Z,2.53
2018-07-06T10:21:53.081Z,3.00
2018-07-06T10:24:21.619Z,2.93
2018-07-06T10:26:50.214Z,2.80
2018-07-06T10:29:25.356Z,2.30
2018-07-06T10:32:18.489Z,2.60
2018-07-06T10:34:47.172Z,2.60
2018-07-06T10:37:16.443Z,2.43
2018-07-06T10:39:51.904Z,2.53
2018-07-06T10:42:20.148Z,2.63
2018-07-06T10:44:48.945Z,3.20
2018-07-06T10:47:17.466Z,3.10
2018-07-06T10:49:46.742Z,2.47
2018-07-06T10:52:16.205Z,2.00
2018-07-06T10:54:45.272Z,2.17
2018-07-06T10:57:17.087Z,2.40
2018-07-06T10:59:45.762Z,2.50
2018-07-06T11:02:14.342Z,2.70
2018-07-06T11:04:43.137Z,2.63
2018-07-06T11:07:11.696Z,2.50
2018-07-06T11:09:40.274Z,2.57
2018-07-06T11:12:08.790Z,2.33
2018-07-06T11:14:37.345Z,2.37
2018-07-06T11:17:05.950Z,2.40
2018-07-06T11:19:34.535Z,3.20
2018-07-06T11:22:03.043Z,2.17
2018-07-06T11:24:31.531Z,2.13
2018-07-06T11:27:00.042Z,2.43
2018-07-06T11:29:28.689Z,2.07
2018-07-06T11:31:57.211Z,2.03
2018-07-06T11:34:25.756Z,2.03
2018-07-06T11:36:54.288Z,1.70
2018-07-06T11:39:22.831Z,1.97
2018-07-06T11:41:51.355Z,1.90
2018-07-06T11:44:19.907Z,2.50
2018-07-06T11:46:48.434Z,2.03
2018-07-06T11:49:17.014Z,2.27
2018-07-06T11:51:45.617Z,2.17
2018-07-06T11:54:14.124Z,2.23
2018-07-06T11:56:42.669Z,1.97
2018-07-06T11:59:11.199Z,1.70
2018-07-06T12:01:39.956Z,1.77
2018-07-06T12:04:08.545Z,2.10
2018-07-06T12:06:36.999Z,1.90
2018-07-06T12:09:06.165Z,1.80
2018-07-06T12:11:34.643Z,1.93
2018-07-06T12:14:03.181Z,1.63
2018-07-06T12:16:32.111Z,2.00
2018-07-06T12:19:00.642Z,1.70
2018-07-06T12:21:29.375Z,1.87
2018-07-06T12:23:57.791Z,2.07
2018-07-06T12:26:27.929Z,1.83
2018-07-06T12:28:56.465Z,1.90
2018-07-06T12:31:25.454Z,2.10
2018-07-06T12:33:55.999Z,2.13
2018-07-06T12:36:24.508Z,2.03
2018-07-06T12:38:53.041Z,2.20
2018-07-06T12:41:21.811Z,1.80
2018-07-06T12:43:50.746Z,1.83
2018-07-06T12:46:19.368Z,1.83
2018-07-06T12:48:49.291Z,1.83
2018-07-06T12:51:17.807Z,1.93
2018-07-06T12:53:47.891Z,1.80
2018-07-06T12:56:16.506Z,2.17
2018-07-06T12:58:45.241Z,1.97
2018-07-06T13:01:13.902Z,2.07
2018-07-06T13:03:42.423Z,2.37
2018-07-06T13:06:11.079Z,1.90
2018-07-06T13:08:39.610Z,2.17
2018-07-06T13:11:08.099Z,1.90
2018-07-06T13:13:37.382Z,1.97
2018-07-06T13:16:06.263Z,2.10
2018-07-06T13:18:34.853Z,2.00
2018-07-06T13:21:03.828Z,1.90
2018-07-06T13:23:32.350Z,2.10
2018-07-06T13:26:00.897Z,1.60
2018-07-06T13:28:29.424Z,2.00
2018-07-06T13:30:58.068Z,2.00
2018-07-06T13:33:30.144Z,1.70
2018-07-06T13:35:58.872Z,2.27
2018-07-06T13:38:27.593Z,1.93
2018-07-06T13:40:56.216Z,2.10
2018-07-06T13:43:24.675Z,1.97
2018-07-06T13:45:54.191Z,2.23
2018-07-06T13:48:22.665Z,1.77
2018-07-06T13:50:51.147Z,1.47
2018-07-06T13:53:19.797Z,1.80
2018-07-06T13:55:48.316Z,1.87
2018-07-06T13:58:17.040Z,2.30
2018-07-06T14:00:45.692Z,2.07
2018-07-06T14:03:16.446Z,1.90
2018-07-06T14:05:45.021Z,2.00
2018-07-06T14:08:13.827Z,1.83
2018-07-06T14:10:44.262Z,1.93
2018-07-06T14:13:14.420Z,2.37
2018-07-06T14:15:43.132Z,2.00
2018-07-06T14:18:11.764Z,1.90
2018-07-06T14:20:40.379Z,1.57
2018-07-06T14:23:08.818Z,2.50
2018-07-06T14:25:37.305Z,1.70
2018-07-06T14:28:05.825Z,2.00
2018-07-06T14:30:35.521Z,2.80
2018-07-06T14:33:04.203Z,1.63
2018-07-06T14:35:32.735Z,1.87
2018-07-06T14:38:01.247Z,2.10
2018-07-06T14:40:29.747Z,1.87
2018-07-06T14:42:58.232Z,2.30
2018-07-06T14:45:26.752Z,1.80
2018-07-06T14:47:55.279Z,2.20
2018-07-06T14:50:23.769Z,1.50
2018-07-06T14:52:52.587Z,1.97
2018-07-06T14:55:21.124Z,2.10
2018-07-06T14:57:49.628Z,2.10
2018-07-06T15:00:18.114Z,1.70
2018-07-06T15:02:46.651Z,1.60
2018-07-06T15:05:15.131Z,1.30
2018-07-06T15:07:43.704Z,1.47
2018-07-06T15:10:12.603Z,1.37
2018-07-06T15:12:41.161Z,1.77
2018-07-06T15:15:09.618Z,1.50
2018-07-06T15:17:38.141Z,1.83
2018-07-06T15:20:06.691Z,1.27
2018-07-06T15:22:35.268Z,1.53
2018-07-06T15:25:03.839Z,1.20
2018-07-06T15:27:32.329Z,1.57
2018-07-06T15:30:00.537Z,1.23
2018-07-06T15:32:29.274Z,1.60
2018-07-06T15:34:57.766Z,1.90
2018-07-06T15:37:26.246Z,1.70
2018-07-06T15:39:54.755Z,1.90
2018-07-06T15:42:23.012Z,2.03
2018-07-06T15:44:51.497Z,2.07
2018-07-06T15:47:20.064Z,1.73
2018-07-06T15:49:48.591Z,1.60
2018-07-06T15:52:17.266Z,2.20
2018-07-06T15:54:45.850Z,2.10
2018-07-06T15:57:14.651Z,2.07
2018-07-06T15:59:43.094Z,2.53
2018-07-06T16:02:11.590Z,1.67
2018-07-06T16:04:40.108Z,2.23
2018-07-06T16:07:08.600Z,1.90
2018-07-06T16:09:37.074Z,2.10
2018-07-06T16:12:05.662Z,2.20
2018-07-06T16:14:34.140Z,2.83
2018-07-06T16:17:02.607Z,2.13
2018-07-06T16:19:31.116Z,1.93
2018-07-06T16:21:59.674Z,2.13
2018-07-06T16:24:28.146Z,2.07
2018-07-06T16:26:56.723Z,2.03
2018-07-06T16:29:25.223Z,2.00
2018-07-06T16:31:53.845Z,2.03
2018-07-06T16:34:22.242Z,1.97
2018-07-06T16:36:50.765Z,2.20
2018-07-06T16:39:19.266Z,2.23
2018-07-06T16:41:47.760Z,1.90
2018-07-06T16:44:16.602Z,2.13
2018-07-06T16:46:45.141Z,2.43
2018-07-06T16:49:13.659Z,2.10
2018-07-06T16:51:42.161Z,2.67
2018-07-06T16:54:10.679Z,2.43
2018-07-06T16:56:39.183Z,2.73
2018-07-06T16:59:07.736Z,2.67
2018-07-06T17:01:36.261Z,2.50
2018-07-06T17:04:04.773Z,2.20
2018-07-06T17:06:33.277Z,2.43
2018-07-06T17:09:02.116Z,2.20
2018-07-06T17:11:30.663Z,2.67
2018-07-06T17:13:59.117Z,2.20
2018-07-06T17:16:27.630Z,2.00
2018-07-06T17:18:56.093Z,2.27
2018-07-06T17:21:24.623Z,2.00
2018-07-06T17:23:53.127Z,2.70
2018-07-06T17:26:21.695Z,2.43
2018-07-06T17:28:50.530Z,2.90
2018-07-06T17:31:19.000Z,2.57
2018-07-06T17:33:47.486Z,2.17
2018-07-06T17:36:15.935Z,2.23
2018-07-06T17:38:44.489Z,1.90
2018-07-06T17:41:13.022Z,2.10
2018-07-06T17:43:41.546Z,2.60
2018-07-06T17:46:09.982Z,1.97
2018-07-06T17:48:38.502Z,2.63
2018-07-06T17:51:07.014Z,2.33
2018-07-06T17:53:35.582Z,2.07
2018-07-06T17:56:04.118Z,2.03
2018-07-06T17:58:32.668Z,2.10
2018-07-06T18:01:01.121Z,1.73
2018-07-06T18:03:29.563Z,2.03
2018-07-06T18:05:58.067Z,2.13
2018-07-06T18:08:26.532Z,2.80
2018-07-06T18:10:55.080Z,2.10
2018-07-06T18:13:23.607Z,2.30
2018-07-06T18:15:52.160Z,2.43
2018-07-06T18:18:20.645Z,2.03
2018-07-06T18:20:49.146Z,2.00
2018-07-06T18:23:17.693Z,2.33
2018-07-06T18:25:46.230Z,2.33
2018-07-06T18:28:14.698Z,1.70
2018-07-06T18:30:43.215Z,2.23
2018-07-06T18:33:11.402Z,2.40
2018-07-06T18:35:39.853Z,2.23
2018-07-06T18:38:08.272Z,2.90
2018-07-06T18:40:36.845Z,2.37
2018-07-06T18:43:05.430Z,2.40
2018-07-06T18:45:33.974Z,2.57
2018-07-06T18:48:02.426Z,2.40
2018-07-06T18:50:30.892Z,2.43
2018-07-06T18:52:59.414Z,3.10
2018-07-06T18:55:27.956Z,2.87
2018-07-06T18:57:56.454Z,2.40
2018-07-06T19:00:24.715Z,2.60
2018-07-06T19:02:53.219Z,2.53
2018-07-06T19:05:21.702Z,2.20
2018-07-06T19:07:50.249Z,2.30
2018-07-06T19:10:18.738Z,1.93
2018-07-06T19:12:47.231Z,2.27
2018-07-06T19:15:15.757Z,2.33
2018-07-06T19:17:44.232Z,2.07
2018-07-06T19:20:12.776Z,2.07
2018-07-06T19:22:41.343Z,3.07
2018-07-06T19:25:09.807Z,2.23
2018-07-06T19:27:38.646Z,2.47
2018-07-06T19:30:07.099Z,2.97
2018-07-06T19:32:35.590Z,2.30
2018-07-06T19:35:04.044Z,1.93
2018-07-06T19:37:32.541Z,2.80
2018-07-06T19:40:01.135Z,2.60
2018-07-06T19:42:29.649Z,2.40
2018-07-06T19:44:58.152Z,3.37
2018-07-06T19:47:26.681Z,2.07
2018-07-06T19:49:55.161Z,2.70
2018-07-06T19:52:23.672Z,3.00
2018-07-06T19:54:52.230Z,2.70
2018-07-06T19:57:20.718Z,2.77
2018-07-06T19:59:49.193Z,2.43
2018-07-06T20:02:17.667Z,2.60
2018-07-06T20:04:46.173Z,2.70
2018-07-06T20:07:14.730Z,3.13
2018-07-06T20:09:43.218Z,2.63
2018-07-06T20:12:11.814Z,3.00
2018-07-06T20:14:40.273Z,3.77
2018-07-06T20:17:08.780Z,2.73
2018-07-06T20:19:37.268Z,2.70
2018-07-06T20:22:05.934Z,2.63
2018-07-06T20:24:34.452Z,2.43
2018-07-06T20:27:02.909Z,3.33
2018-07-06T20:29:31.398Z,2.53
2018-07-06T20:31:59.983Z,3.00
2018-07-06T20:34:28.510Z,2.97
2018-07-06T20:36:56.911Z,2.27
2018-07-06T20:39:25.424Z,3.10
2018-07-06T20:41:53.909Z,2.53
2018-07-06T20:44:22.529Z,2.40
2018-07-06T20:46:51.017Z,2.53
2018-07-06T20:49:19.530Z,2.90
2018-07-06T20:51:48.023Z,2.60
2018-07-06T20:54:16.507Z,2.97
2018-07-06T20:56:44.979Z,2.70
2018-07-06T20:59:13.634Z,4.13
2018-07-06T21:01:42.104Z,2.80
2018-07-06T21:04:10.637Z,2.70
2018-07-06T21:06:39.158Z,2.43
2018-07-06T21:09:07.618Z,2.70
2018-07-06T21:11:36.119Z,2.80
2018-07-06T21:14:04.605Z,3.10
2018-07-06T21:16:33.163Z,2.70
2018-07-06T21:19:01.619Z,2.40
2018-07-06T21:21:30.134Z,2.60
2018-07-06T21:23:58.650Z,2.63
2018-07-06T21:26:27.139Z,2.70
2018-07-06T21:28:55.562Z,3.63
2018-07-06T21:31:24.150Z,2.60
2018-07-06T21:33:52.585Z,2.40
2018-07-06T21:36:21.082Z,2.30
2018-07-06T21:38:49.534Z,3.00
2018-07-06T21:41:18.037Z,3.10
2018-07-06T21:43:46.449Z,3.63
2018-07-06T21:46:15.102Z,2.57
2018-07-06T21:48:43.723Z,3.33
2018-07-06T21:51:12.242Z,3.07
2018-07-06T21:53:40.740Z,3.00
2018-07-06T21:56:09.251Z,3.10
2018-07-06T21:58:37.785Z,3.10
2018-07-06T22:01:06.328Z,3.20
2018-07-06T22:03:34.841Z,3.00
2018-07-06T22:06:03.371Z,2.90
2018-07-06T22:08:31.846Z,2.67
2018-07-06T22:11:00.310Z,2.90
2018-07-06T22:13:29.062Z,3.13
2018-07-06T22:15:57.262Z,2.53
2018-07-06T22:18:25.775Z,3.03
2018-07-06T22:20:54.250Z,3.10
2018-07-06T22:23:22.859Z,2.53
2018-07-06T22:25:51.399Z,2.93
2018-07-06T22:28:19.975Z,2.90
2018-07-06T22:30:48.544Z,3.10
2018-07-06T22:33:17.261Z,2.60
2018-07-06T22:35:45.834Z,2.87
2018-07-06T22:38:14.445Z,3.27
2018-07-06T22:40:43.026Z,2.80
2018-07-06T22:43:11.615Z,2.80
2018-07-06T22:45:40.240Z,2.83
2018-07-06T22:48:08.829Z,2.83
2018-07-06T22:50:37.453Z,3.30
2018-07-06T22:53:06.050Z,2.60
2018-07-06T22:55:34.567Z,2.63
2018-07-06T22:58:03.171Z,3.20
2018-07-06T23:00:31.791Z,2.80
2018-07-06T23:03:01.988Z,2.40
2018-07-06T23:05:30.567Z,2.77
2018-07-06T23:07:59.059Z,2.53
2018-07-06T23:10:27.633Z,2.93
2018-07-06T23:12:56.197Z,2.77
2018-07-06T23:15:24.695Z,2.33
2018-07-06T23:17:53.239Z,3.07
2018-07-06T23:20:21.744Z,3.13
2018-07-06T23:22:59.481Z,2.40
2018-07-06T23:25:28.111Z,3.13
2018-07-06T23:27:56.770Z,2.63
2018-07-06T23:30:25.922Z,2.57
2018-07-06T23:32:54.788Z,2.70
2018-07-06T23:35:23.806Z,2.70
2018-07-06T23:37:52.630Z,2.63
2018-07-06T23:40:21.481Z,2.43
2018-07-06T23:42:50.067Z,2.57
2018-07-06T23:45:18.655Z,3.43
2018-07-06T23:47:47.176Z,2.87
2018-07-06T23:50:16.107Z,3.10
2018-07-06T23:52:44.614Z,2.90
2018-07-06T23:55:13.592Z,2.77
2018-07-06T23:57:42.232Z,3.13
